Time;durP1;ratioP1;P1;durP2;ratioP2;P2;SDS_P1;SDS_P2;PMS_P1;PMS_P2;Temp;Humidity;BMP_temperature;BMP_pressure;BME280_temperature;BME280_humidity;BME280_pressure;Samples;Min_cycle;Max_cycle;Signal;HPM_P1;HPM_P2
2022/04/14 00:00:13;;;;;;;14.75;8.02;;;11.40;99.90;;;;;;4979710;28;20051;-80
2022/04/14 00:02:38;;;;;;;11.35;7.95;;;11.40;99.90;;;;;;4962965;28;20042;-79
2022/04/14 00:05:05;;;;;;;13.02;8.25;;;11.40;99.90;;;;;;4983010;28;20348;-79
2022/04/14 00:07:31;;;;;;;11.93;8.82;;;11.40;99.90;;;;;;4984015;28;20042;-80
2022/04/14 00:09:56;;;;;;;13.43;7.97;;;12.50;99.90;;;;;;4980884;28;20084;-80
2022/04/14 00:12:22;;;;;;;13.00;8.02;;;11.30;99.90;;;;;;4963541;28;20038;-81
2022/04/14 00:14:47;;;;;;;14.82;8.40;;;10.80;99.90;;;;;;4980432;28;20093;-80
2022/04/14 00:17:13;;;;;;;13.45;7.72;;;11.20;99.90;;;;;;4982751;28;20050;-80
2022/04/14 00:19:40;;;;;;;13.52;8.13;;;11.30;99.90;;;;;;4982497;28;20038;-80
2022/04/14 00:22:05;;;;;;;14.07;8.50;;;11.20;99.90;;;;;;4978686;28;20478;-80
2022/04/14 00:24:31;;;;;;;13.60;8.45;;;11.20;99.90;;;;;;4979206;28;20228;-81
2022/04/14 00:26:56;;;;;;;15.93;8.98;;;11.20;99.90;;;;;;4983240;28;20050;-81
2022/04/14 00:29:22;;;;;;;14.52;8.35;;;10.90;99.90;;;;;;4966087;28;20081;-80
2022/04/14 00:31:48;;;;;;;16.88;9.13;;;12.80;99.90;;;;;;4964504;28;20089;-81
2022/04/14 00:34:13;;;;;;;11.45;7.90;;;12.20;99.90;;;;;;4979383;28;20103;-80
2022/04/14 00:36:39;;;;;;;14.25;8.18;;;11.10;99.90;;;;;;4979924;28;20577;-80
2022/04/14 00:39:04;;;;;;;11.00;9.27;;;11.10;99.90;;;;;;4966299;28;20049;-81
2022/04/14 00:41:30;;;;;;;14.38;8.30;;;11.20;99.90;;;;;;4966402;28;20070;-80
2022/04/14 00:43:55;;;;;;;11.70;7.85;;;11.00;99.90;;;;;;4980401;28;20050;-80
2022/04/14 00:46:21;;;;;;;15.77;9.50;;;11.10;99.90;;;;;;4963173;28;20085;-80
2022/04/14 00:48:49;;;;;;;13.88;9.30;;;11.10;99.90;;;;;;4963673;28;20606;-80
2022/04/14 00:51:15;;;;;;;12.48;9.32;;;11.00;99.90;;;;;;4982142;28;20129;-80
2022/04/14 00:53:40;;;;;;;13.85;8.75;;;10.90;99.90;;;;;;4981383;28;20573;-79
2022/04/14 00:56:07;;;;;;;16.00;9.25;;;10.90;99.90;;;;;;4979013;28;20118;-80
2022/04/14 00:58:34;;;;;;;15.32;9.75;;;10.90;99.90;;;;;;4977274;28;20050;-79
2022/04/14 01:01:01;;;;;;;12.20;8.85;;;11.70;99.90;;;;;;4982265;28;20042;-79
2022/04/14 01:03:27;;;;;;;13.63;8.73;;;10.70;99.90;;;;;;4982004;28;20042;-80
2022/04/14 01:05:54;;;;;;;15.05;8.60;;;10.80;99.90;;;;;;4979668;28;20048;-80
2022/04/14 01:08:20;;;;;;;13.23;10.35;;;10.80;99.90;;;;;;4978837;28;20101;-80
2022/04/14 01:10:48;;;;;;;14.32;9.35;;;10.80;99.90;;;;;;4963094;28;20042;-80
2022/04/14 01:13:18;;;;;;;13.23;8.73;;;10.70;99.90;;;;;;4982856;28;20061;-80
2022/04/14 01:15:45;;;;;;;16.45;8.70;;;10.70;99.90;;;;;;4980927;28;20046;-80
2022/04/14 01:18:10;;;;;;;13.93;8.88;;;10.70;99.90;;;;;;4978445;28;20045;-80
2022/04/14 01:20:38;;;;;;;12.75;8.70;;;10.60;99.90;;;;;;4961653;28;20039;-80
2022/04/14 01:23:04;;;;;;;14.45;8.95;;;10.60;99.90;;;;;;4964748;28;20038;-80
2022/04/14 01:25:32;;;;;;;11.73;8.90;;;10.60;99.90;;;;;;4980584;28;20070;-80
2022/04/14 01:27:57;;;;;;;15.00;9.25;;;10.60;99.90;;;;;;4979438;28;20088;-80
2022/04/14 01:30:24;;;;;;;9.25;8.27;;;10.60;99.90;;;;;;4978388;28;20511;-80
2022/04/14 01:32:49;;;;;;;9.82;8.82;;;10.60;99.90;;;;;;4961722;28;20046;-80
2022/04/14 01:35:16;;;;;;;12.63;8.68;;;10.80;99.90;;;;;;4982911;28;20363;-80
2022/04/14 01:37:42;;;;;;;12.30;8.27;;;10.60;99.90;;;;;;4965274;28;20038;-79
2022/04/14 01:40:08;;;;;;;13.70;8.95;;;10.70;99.90;;;;;;4978714;28;20114;-80
2022/04/14 01:42:34;;;;;;;13.60;8.77;;;10.60;99.90;;;;;;4961523;28;20043;-80
2022/04/14 01:45:00;;;;;;;12.50;8.95;;;10.60;99.90;;;;;;4979783;28;20125;-80
2022/04/14 01:47:25;;;;;;;14.60;8.95;;;10.60;99.90;;;;;;4981852;28;20074;-80
2022/04/14 01:49:52;;;;;;;12.82;9.20;;;10.60;99.90;;;;;;4963443;28;20465;-80
2022/04/14 01:52:18;;;;;;;15.07;9.30;;;12.10;99.90;;;;;;4961849;28;20522;-80
2022/04/14 01:54:44;;;;;;;14.18;9.38;;;11.70;99.90;;;;;;4976473;28;20094;-80
2022/04/14 01:57:09;;;;;;;17.42;10.63;;;11.40;99.90;;;;;;4965124;28;20074;-79
2022/04/14 01:59:35;;;;;;;16.38;10.18;;;10.50;99.90;;;;;;4964687;28;20132;-80
2022/04/14 02:02:01;;;;;;;15.55;10.88;;;10.40;99.90;;;;;;4978940;28;20053;-80
2022/04/14 02:04:26;;;;;;;14.40;11.02;;;10.50;99.90;;;;;;4978887;28;20051;-80
2022/04/14 02:06:52;;;;;;;15.55;10.23;;;10.40;99.90;;;;;;4962099;28;20050;-80
2022/04/14 02:09:17;;;;;;;13.15;10.80;;;10.30;99.90;;;;;;4964367;28;20050;-80
2022/04/14 02:11:43;;;;;;;14.75;9.98;;;10.20;99.90;;;;;;4980914;28;20089;-80
2022/04/14 02:14:09;;;;;;;14.48;10.48;;;10.00;99.90;;;;;;4977730;28;20133;-80
2022/04/14 02:16:34;;;;;;;16.08;11.57;;;10.40;99.90;;;;;;4978043;28;20491;-80
2022/04/14 02:19:00;;;;;;;14.02;9.95;;;9.90;99.90;;;;;;4978972;28;20050;-79
2022/04/14 02:21:25;;;;;;;18.60;11.98;;;10.40;99.90;;;;;;4982240;28;20046;-80
2022/04/14 02:23:51;;;;;;;24.27;13.90;;;10.30;99.90;;;;;;4961705;28;20058;-80
2022/04/14 02:26:17;;;;;;;19.52;12.48;;;10.20;99.90;;;;;;4977279;28;20057;-79
2022/04/14 02:28:43;;;;;;;16.20;12.60;;;10.20;99.90;;;;;;4976327;28;20506;-80
2022/04/14 02:31:09;;;;;;;16.80;11.98;;;11.30;99.90;;;;;;4980378;28;20047;-80
2022/04/14 02:33:34;;;;;;;22.40;13.73;;;10.10;99.90;;;;;;4963890;28;20221;-81
2022/04/14 02:36:00;;;;;;;16.00;12.02;;;10.10;99.90;;;;;;4977802;28;20450;-80
2022/04/14 02:38:25;;;;;;;21.20;12.85;;;10.00;99.90;;;;;;4977101;28;20054;-79
2022/04/14 02:40:51;;;;;;;18.63;13.38;;;11.40;99.90;;;;;;4978465;28;20042;-80
2022/04/14 02:43:17;;;;;;;18.20;13.38;;;9.80;99.90;;;;;;4979773;28;20039;-80
2022/04/14 02:45:42;;;;;;;19.98;12.85;;;10.00;99.90;;;;;;4964000;28;20049;-80
2022/04/14 02:48:08;;;;;;;17.63;12.43;;;9.90;99.90;;;;;;4961194;28;20051;-80
2022/04/14 02:50:33;;;;;;;18.35;13.25;;;10.00;99.90;;;;;;4976180;28;20074;-80
2022/04/14 02:52:59;;;;;;;19.05;13.68;;;11.50;99.90;;;;;;4978076;28;20042;-79
2022/04/14 02:55:27;;;;;;;27.85;15.02;;;9.90;99.90;;;;;;4979936;28;20453;-79
2022/04/14 02:57:53;;;;;;;21.02;14.68;;;9.90;99.90;;;;;;4978208;28;20125;-79
2022/04/14 03:00:19;;;;;;;18.60;13.90;;;9.90;99.90;;;;;;4976750;28;20129;-80
2022/04/14 03:02:44;;;;;;;21.90;15.15;;;9.90;99.90;;;;;;4960138;28;20057;-79
2022/04/14 03:05:10;;;;;;;19.35;14.30;;;10.30;99.90;;;;;;4962309;28;20049;-80
2022/04/14 03:07:36;;;;;;;20.67;14.13;;;9.50;99.90;;;;;;4963487;28;20073;-79
2022/04/14 03:10:03;;;;;;;20.23;14.05;;;9.70;99.90;;;;;;4961507;28;20046;-80
2022/04/14 03:12:39;;;;;;;19.50;14.00;;;9.70;99.90;;;;;;4975607;28;20039;-80
2022/04/14 03:15:05;;;;;;;19.13;13.63;;;9.70;99.90;;;;;;4978377;28;20113;-79
2022/04/14 03:17:31;;;;;;;21.15;14.25;;;9.70;99.90;;;;;;4963479;28;20526;-79
2022/04/14 03:19:56;;;;;;;20.42;14.68;;;9.70;99.90;;;;;;4979155;28;20038;-80
2022/04/14 03:22:22;;;;;;;25.05;16.30;;;9.60;99.90;;;;;;4977550;28;20034;-79
2022/04/14 03:24:47;;;;;;;22.95;15.40;;;9.60;99.90;;;;;;4959294;28;20062;-79
2022/04/14 03:27:13;;;;;;;23.42;15.35;;;9.60;99.90;;;;;;4979501;28;20117;-79
2022/04/14 03:29:41;;;;;;;22.20;15.18;;;10.70;99.90;;;;;;4979647;28;20038;-80
2022/04/14 03:32:07;;;;;;;19.00;14.57;;;9.50;99.90;;;;;;4976753;28;20036;-79
2022/04/14 03:34:32;;;;;;;18.83;14.75;;;9.50;99.90;;;;;;4976260;28;20035;-79
2022/04/14 03:36:58;;;;;;;23.73;17.02;;;9.80;99.90;;;;;;4978818;28;20538;-80
2022/04/14 03:39:24;;;;;;;20.17;15.52;;;9.60;99.90;;;;;;4980694;28;20035;-79
2022/04/14 03:41:49;;;;;;;19.80;15.55;;;11.20;99.90;;;;;;4979545;28;20651;-79
2022/04/14 03:44:15;;;;;;;27.25;17.05;;;9.50;99.90;;;;;;4960264;28;20043;-80
2022/04/14 03:46:41;;;;;;;20.77;15.63;;;9.60;99.90;;;;;;4976895;28;20043;-79
2022/04/14 03:49:06;;;;;;;23.05;16.17;;;9.60;99.90;;;;;;4978680;28;20050;-79
2022/04/14 03:51:34;;;;;;;27.48;18.85;;;9.20;99.90;;;;;;4980430;28;20491;-79
2022/04/14 03:53:59;;;;;;;30.70;20.08;;;9.50;99.90;;;;;;4977990;28;20039;-79
2022/04/14 03:56:25;;;;;;;26.63;20.90;;;9.40;99.90;;;;;;4960886;28;20039;-80
2022/04/14 03:58:50;;;;;;;26.15;19.58;;;9.40;99.90;;;;;;4960396;28;20035;-79
2022/04/14 04:01:16;;;;;;;28.70;19.52;;;9.40;99.90;;;;;;4975346;28;20055;-79
2022/04/14 04:03:42;;;;;;;29.75;20.98;;;9.40;99.90;;;;;;4977741;28;20391;-79
2022/04/14 04:06:07;;;;;;;28.35;20.60;;;10.90;99.90;;;;;;4979388;28;20087;-79
2022/04/14 04:08:33;;;;;;;25.45;19.42;;;9.40;99.90;;;;;;4979118;28;20039;-80
2022/04/14 04:10:59;;;;;;;32.15;20.75;;;11.00;99.90;;;;;;4979404;28;20043;-80
2022/04/14 04:13:25;;;;;;;29.20;20.55;;;9.30;99.90;;;;;;4977356;28;20374;-80
2022/04/14 04:15:50;;;;;;;30.77;20.98;;;9.00;99.90;;;;;;4976007;28;20045;-79
2022/04/14 04:18:16;;;;;;;25.95;19.13;;;8.80;99.90;;;;;;4963594;28;20046;-80
2022/04/14 04:20:41;;;;;;;25.83;18.95;;;8.90;99.90;;;;;;4979171;28;20042;-80
2022/04/14 04:23:07;;;;;;;29.60;19.40;;;9.00;99.90;;;;;;4960049;28;20047;-79
2022/04/14 04:25:33;;;;;;;25.98;19.02;;;9.00;99.90;;;;;;4975960;28;20138;-80
2022/04/14 04:27:58;;;;;;;25.23;18.67;;;10.60;99.90;;;;;;4976552;28;20035;-80
2022/04/14 04:30:24;;;;;;;26.85;18.30;;;9.20;99.90;;;;;;4979821;28;20394;-79
2022/04/14 04:32:50;;;;;;;28.13;20.17;;;9.10;99.90;;;;;;4962606;28;20046;-79
2022/04/14 04:35:15;;;;;;;26.75;20.13;;;9.20;99.90;;;;;;4961124;28;20035;-79
2022/04/14 04:37:41;;;;;;;25.63;19.00;;;9.10;99.90;;;;;;4963835;28;20093;-79
2022/04/14 04:40:08;;;;;;;26.92;19.02;;;9.00;99.90;;;;;;4964989;28;20053;-79
2022/04/14 04:42:33;;;;;;;29.50;20.60;;;9.10;99.90;;;;;;4981358;28;20039;-79
2022/04/14 04:44:59;;;;;;;28.17;20.05;;;8.60;99.90;;;;;;4981664;28;20038;-79
2022/04/14 04:47:25;;;;;;;25.70;18.83;;;8.90;99.90;;;;;;4979141;28;20049;-79
2022/04/14 04:49:51;;;;;;;27.60;19.25;;;8.90;99.90;;;;;;4979847;28;20050;-79
2022/04/14 04:52:16;;;;;;;32.63;20.33;;;9.00;99.90;;;;;;4981446;28;20042;-79
2022/04/14 04:54:42;;;;;;;28.20;20.40;;;9.00;99.90;;;;;;4966263;28;20046;-79
2022/04/14 04:57:08;;;;;;;29.48;21.40;;;8.90;99.90;;;;;;4964278;28;20085;-79
2022/04/14 04:59:34;;;;;;;33.65;23.63;;;10.50;99.90;;;;;;4978663;28;20544;-79
2022/04/14 05:02:00;;;;;;;31.63;21.60;;;8.50;99.90;;;;;;4979440;28;20256;-79
2022/04/14 05:04:26;;;;;;;31.20;22.08;;;8.70;99.90;;;;;;4981761;28;20363;-80
2022/04/14 05:06:51;;;;;;;32.95;24.45;;;9.80;99.90;;;;;;4981886;28;20038;-79
2022/04/14 05:09:17;;;;;;;36.85;24.83;;;8.70;99.90;;;;;;4979332;28;20459;-79
2022/04/14 05:11:43;;;;;;;40.40;28.55;;;8.60;99.90;;;;;;4977763;28;20046;-79
2022/04/14 05:14:09;;;;;;;39.97;27.23;;;10.50;99.90;;;;;;4980646;28;20046;-79
2022/04/14 05:16:35;;;;;;;33.03;23.67;;;8.60;99.90;;;;;;4983615;28;20054;-79
2022/04/14 05:19:01;;;;;;;33.33;25.08;;;8.40;99.90;;;;;;4964496;28;20236;-79
2022/04/14 05:21:27;;;;;;;43.75;27.35;;;8.60;99.90;;;;;;4962436;28;20041;-79
2022/04/14 05:23:55;;;;;;;37.30;25.23;;;8.60;99.90;;;;;;4962246;28;20061;-80
2022/04/14 05:26:21;;;;;;;36.50;25.40;;;8.60;99.90;;;;;;4981951;28;20046;-79
2022/04/14 05:28:46;;;;;;;41.70;27.58;;;8.60;99.90;;;;;;4965860;28;20050;-80
2022/04/14 05:31:12;;;;;;;43.13;27.88;;;8.20;99.90;;;;;;4980528;28;20042;-80
2022/04/14 05:33:38;;;;;;;42.33;28.70;;;8.50;99.90;;;;;;4961695;28;20177;-81
2022/04/14 05:36:03;;;;;;;44.85;29.05;;;8.10;99.90;;;;;;4979351;28;20047;-80
2022/04/14 05:38:29;;;;;;;49.60;33.88;;;8.60;99.90;;;;;;4980393;28;20407;-80
2022/04/14 05:40:55;;;;;;;51.08;34.92;;;8.70;99.90;;;;;;4982801;28;20052;-80
2022/04/14 05:43:25;;;;;;;45.95;30.23;;;8.70;99.90;;;;;;4978450;28;20068;-80
2022/04/14 05:45:51;;;;;;;41.80;30.55;;;8.40;99.90;;;;;;4977356;28;20054;-81
2022/04/14 05:48:18;;;;;;;49.92;31.55;;;8.70;99.90;;;;;;4964327;28;20268;-80
2022/04/14 05:50:49;;;;;;;42.33;29.77;;;8.70;99.90;;;;;;4982710;28;20094;-80
2022/04/14 05:53:16;;;;;;;44.30;29.92;;;8.80;99.90;;;;;;4978659;28;20053;-80
2022/04/14 05:55:42;;;;;;;46.30;32.60;;;8.70;99.90;;;;;;4978227;28;20166;-79
2022/04/14 05:58:08;;;;;;;49.75;33.10;;;8.80;99.90;;;;;;4962888;28;20519;-80
2022/04/14 06:00:35;;;;;;;48.60;30.58;;;8.60;99.90;;;;;;4980497;28;20041;-80
2022/04/14 06:03:01;;;;;;;46.85;31.10;;;8.90;99.90;;;;;;4982129;28;20441;-80
2022/04/14 06:05:28;;;;;;;46.65;32.10;;;8.90;99.90;;;;;;4961725;28;20074;-80
2022/04/14 06:07:54;;;;;;;52.45;33.10;;;9.00;99.90;;;;;;4978287;28;20655;-80
2022/04/14 06:10:21;;;;;;;47.47;31.13;;;9.00;99.90;;;;;;4980142;28;20039;-80
2022/04/14 06:12:47;;;;;;;50.28;31.92;;;9.10;99.90;;;;;;4982145;28;20030;-79
2022/04/14 06:15:13;;;;;;;43.15;30.92;;;9.10;99.90;;;;;;4979050;28;20185;-80
2022/04/14 06:17:39;;;;;;;47.35;31.13;;;9.20;99.90;;;;;;4977980;28;20502;-80
2022/04/14 06:20:05;;;;;;;45.50;32.17;;;9.20;99.90;;;;;;4978811;28;20046;-80
2022/04/14 06:22:37;;;;;;;46.10;35.08;;;9.30;99.90;;;;;;4979715;28;20050;-79
2022/04/14 06:25:03;;;;;;;43.40;29.65;;;10.60;99.90;;;;;;4980397;28;20062;-80
2022/04/14 06:27:28;;;;;;;44.00;30.02;;;9.60;99.90;;;;;;4977588;28;20069;-80
2022/04/14 06:29:54;;;;;;;43.97;30.15;;;9.50;99.90;;;;;;4978045;28;20043;-80
2022/04/14 06:32:20;;;;;;;42.38;28.08;;;9.60;99.90;;;;;;4979045;28;20043;-80
2022/04/14 06:34:45;;;;;;;40.33;30.17;;;9.70;99.90;;;;;;4979976;28;20169;-81
2022/04/14 06:37:11;;;;;;;40.67;30.23;;;11.20;99.90;;;;;;4980956;28;20042;-82
2022/04/14 06:39:37;;;;;;;46.13;28.73;;;9.80;99.90;;;;;;4978746;28;20483;-79
2022/04/14 06:42:03;;;;;;;42.03;29.15;;;9.80;99.90;;;;;;4976296;28;20122;-81
2022/04/14 06:44:28;;;;;;;40.25;30.63;;;9.80;99.90;;;;;;4979423;28;20042;-81
2022/04/14 06:46:54;;;;;;;40.33;29.33;;;9.80;99.90;;;;;;4980587;28;20030;-80
2022/04/14 06:49:19;;;;;;;36.90;27.77;;;9.90;99.90;;;;;;4979200;28;20062;-80
2022/04/14 06:51:45;;;;;;;36.40;28.25;;;9.90;99.90;;;;;;4976579;28;20070;-80
2022/04/14 06:54:10;;;;;;;43.15;26.83;;;9.90;99.90;;;;;;4976942;28;20054;-80
2022/04/14 06:56:36;;;;;;;34.13;26.77;;;9.90;99.90;;;;;;4980843;28;20034;-81
2022/04/14 06:59:01;;;;;;;38.70;25.80;;;10.00;99.90;;;;;;4980238;28;20503;-80
2022/04/14 07:01:27;;;;;;;40.53;27.20;;;10.10;99.90;;;;;;4977283;28;20046;-80
2022/04/14 07:03:53;;;;;;;39.33;27.25;;;10.10;99.90;;;;;;4976218;28;20061;-80
2022/04/14 07:06:19;;;;;;;35.85;25.10;;;10.20;99.90;;;;;;4977905;28;20046;-80
2022/04/14 07:08:44;;;;;;;32.45;23.80;;;10.20;99.90;;;;;;4979774;28;20061;-80
2022/04/14 07:11:10;;;;;;;35.88;23.65;;;10.30;99.90;;;;;;4963695;28;20497;-80
2022/04/14 07:13:36;;;;;;;30.30;23.45;;;10.30;99.90;;;;;;4978116;28;20050;-80
2022/04/14 07:16:01;;;;;;;33.00;23.70;;;10.40;99.90;;;;;;4978032;28;20459;-81
2022/04/14 07:18:27;;;;;;;37.65;23.20;;;10.50;99.90;;;;;;4978201;28;20057;-80
2022/04/14 07:20:53;;;;;;;35.53;24.08;;;10.60;99.90;;;;;;4963691;28;20054;-81
2022/04/14 07:23:19;;;;;;;32.10;23.05;;;10.60;99.90;;;;;;4961934;28;20134;-80
2022/04/14 07:25:46;;;;;;;31.63;22.38;;;10.70;99.90;;;;;;4977084;28;20047;-80
2022/04/14 07:28:12;;;;;;;29.90;21.38;;;10.90;99.90;;;;;;4960711;28;20047;-80
2022/04/14 07:30:39;;;;;;;33.20;23.67;;;10.90;99.90;;;;;;4977192;28;20372;-81
2022/04/14 07:33:06;;;;;;;34.58;23.08;;;10.90;99.90;;;;;;4959202;28;20043;-81
2022/04/14 07:35:32;;;;;;;28.40;22.63;;;11.00;99.90;;;;;;4978917;28;20043;-80
2022/04/14 07:37:58;;;;;;;33.05;22.63;;;11.10;99.90;;;;;;4980036;28;20038;-81
2022/04/14 07:40:25;;;;;;;31.15;23.17;;;11.10;99.90;;;;;;4977545;28;20054;-80
2022/04/14 07:42:51;;;;;;;31.70;22.73;;;11.20;99.90;;;;;;4959602;28;20043;-81
2022/04/14 07:45:18;;;;;;;30.98;23.92;;;11.30;99.90;;;;;;4960063;28;20046;-82
2022/04/14 07:47:45;;;;;;;33.65;24.83;;;11.40;99.90;;;;;;4979688;28;20046;-81
2022/04/14 07:50:21;;;;;;;37.40;25.27;;;11.40;99.90;;;;;;4979767;28;20050;-80
2022/04/14 07:52:49;;;;;;;33.30;23.65;;;11.50;99.90;;;;;;4976244;28;20035;-80
2022/04/14 07:55:34;;;;;;;31.10;23.17;;;12.10;99.90;;;;;;4944144;28;20055;-81
2022/04/14 07:58:05;;;;;;;30.30;22.42;;;11.70;99.90;;;;;;4960039;28;20049;-81
2022/04/14 08:00:31;;;;;;;31.00;23.92;;;11.70;99.90;;;;;;4961771;28;20491;-81
2022/04/14 08:02:59;;;;;;;30.42;23.77;;;11.80;99.90;;;;;;4979075;28;20100;-81
2022/04/14 08:05:42;;;;;;;32.05;22.60;;;11.80;99.90;;;;;;4978168;28;20057;-81
2022/04/14 08:08:16;;;;;;;32.35;22.13;;;11.90;99.90;;;;;;4976649;28;20057;-81
2022/04/14 08:10:43;;;;;;;;;;;12.00;99.90;;;;;;4980683;28;20034;-81
2022/04/14 08:13:09;;;;;;;25.17;21.70;;;12.00;99.90;;;;;;4980799;28;20005;-80
2022/04/14 08:15:35;;;;;;;28.40;22.27;;;12.10;99.90;;;;;;4981950;28;20086;-81
2022/04/14 08:18:02;;;;;;;25.83;21.48;;;12.20;99.90;;;;;;4984169;28;20125;-81
2022/04/14 08:20:28;;;;;;;28.08;21.52;;;12.30;99.90;;;;;;4981205;28;20050;-81
2022/04/14 08:22:56;;;;;;;25.45;21.00;;;12.40;99.90;;;;;;4979495;28;20038;-81
2022/04/14 08:25:25;;;;;;;28.33;20.38;;;12.50;99.90;;;;;;4979863;28;20117;-80
2022/04/14 08:27:52;;;;;;;25.60;21.13;;;12.60;99.90;;;;;;4983830;28;20096;-80
2022/04/14 08:30:18;;;;;;;26.70;20.25;;;12.70;99.90;;;;;;4984285;28;20142;-80
2022/04/14 08:32:45;;;;;;;27.48;21.02;;;12.70;99.90;;;;;;4978955;28;20071;-80
2022/04/14 08:35:12;;;;;;;24.30;19.33;;;12.90;99.90;;;;;;4978868;28;20529;-81
2022/04/14 08:37:39;;;;;;;24.75;19.92;;;13.00;99.90;;;;;;4982350;28;20043;-81
2022/04/14 08:40:06;;;;;;;24.70;20.08;;;13.00;99.90;;;;;;4984406;28;20073;-81
2022/04/14 08:42:39;;;;;;;23.65;18.67;;;13.00;99.90;;;;;;4964431;28;20052;-82
2022/04/14 08:45:11;;;;;;;23.65;19.60;;;13.10;99.90;;;;;;4979592;28;20513;-81
2022/04/14 08:47:39;;;;;;;25.58;18.70;;;13.20;99.90;;;;;;4981576;28;20079;-81
2022/04/14 08:50:06;;;;;;;21.80;18.33;;;13.30;99.90;;;;;;4965547;28;20049;-80
2022/04/14 08:52:34;;;;;;;22.48;18.58;;;13.30;99.90;;;;;;4964798;28;20046;-81
2022/04/14 08:55:04;;;;;;;21.75;16.17;;;13.40;99.90;;;;;;4980914;28;20054;-80
2022/04/14 08:57:30;;;;;;;27.42;20.20;;;13.40;99.90;;;;;;4963761;28;20394;-79
2022/04/14 08:59:58;;;;;;;21.08;17.17;;;13.50;99.90;;;;;;4982148;28;20057;-79
2022/04/14 09:02:25;;;;;;;18.17;13.68;;;13.50;99.90;;;;;;4983165;28;20046;-80
2022/04/14 09:04:50;;;;;;;15.23;13.52;;;14.30;99.90;;;;;;4978698;28;20037;-80
2022/04/14 09:07:16;;;;;;;17.92;12.23;;;13.70;99.90;;;;;;4978874;28;20043;-79
2022/04/14 09:09:44;;;;;;;14.68;12.25;;;13.80;99.90;;;;;;4964835;28;20043;-80
2022/04/14 09:12:10;;;;;;;14.13;12.43;;;13.90;99.90;;;;;;4981928;28;20043;-81
2022/04/14 09:14:37;;;;;;;18.05;11.45;;;14.00;99.90;;;;;;4980648;28;20046;-80
2022/04/14 09:17:04;;;;;;;12.65;10.23;;;14.00;99.90;;;;;;4978225;28;20038;-79
2022/04/14 09:19:31;;;;;;;12.95;11.15;;;14.10;99.90;;;;;;4980466;28;20054;-80
2022/04/14 09:22:07;;;;;;;15.90;11.98;;;14.10;99.90;;;;;;4965551;28;20093;-80
2022/04/14 09:24:41;;;;;;;14.85;11.98;;;14.10;99.90;;;;;;4980214;28;20577;-79
2022/04/14 09:27:09;;;;;;;14.32;11.00;;;14.30;99.90;;;;;;4962596;28;20055;-79
2022/04/14 09:29:46;;;;;;;13.60;10.38;;;14.40;99.90;;;;;;4981511;28;20047;-80
2022/04/14 09:32:25;;;;;;;14.63;10.00;;;14.40;99.90;;;;;;4980860;28;20529;-80
2022/04/14 09:34:51;;;;;;;11.65;8.63;;;14.60;99.90;;;;;;4962279;28;20267;-80
2022/04/14 09:37:17;;;;;;;11.35;10.15;;;14.60;99.90;;;;;;4978178;28;20089;-80
2022/04/14 09:40:03;;;;;;;12.82;10.05;;;14.70;99.90;;;;;;4963741;28;20193;-80
2022/04/14 09:42:31;;;;;;;13.45;10.32;;;14.80;99.90;;;;;;4981182;28;20375;-81
2022/04/14 09:45:20;;;;;;;15.05;10.20;;;14.80;99.90;;;;;;4977777;28;20054;-81
2022/04/14 09:47:48;;;;;;;11.93;8.40;;;15.00;99.90;;;;;;4980694;28;20097;-82
2022/04/14 09:50:29;;;;;;;11.18;6.90;;;15.10;99.90;;;;;;4981277;28;20046;-81
2022/04/14 09:53:05;;;;;;;12.40;7.82;;;15.20;99.90;;;;;;4960796;28;20043;-81
2022/04/14 09:55:31;;;;;;;14.88;8.30;;;15.30;99.90;;;;;;4978341;28;20388;-80
2022/04/14 09:58:17;;;;;;;10.88;6.35;;;15.30;99.90;;;;;;4981778;28;20117;-81
2022/04/14 10:00:53;;;;;;;11.45;7.57;;;15.40;99.90;;;;;;4978906;28;20038;-80
2022/04/14 10:03:24;;;;;;;8.15;6.15;;;15.40;99.90;;;;;;4978858;28;20047;-80
2022/04/14 10:05:51;;;;;;;9.68;6.03;;;15.50;99.90;;;;;;4979970;28;20077;-80
2022/04/14 10:08:17;;;;;;;9.15;6.85;;;15.60;99.90;;;;;;4981139;28;20125;-80
2022/04/14 10:10:45;;;;;;;10.45;6.45;;;15.70;99.90;;;;;;4979400;28;20046;-80
2022/04/14 10:13:15;;;;;;;12.65;6.60;;;15.60;99.90;;;;;;4976760;28;20051;-81
2022/04/14 10:15:43;;;;;;;9.55;6.82;;;15.50;99.90;;;;;;4979250;28;20051;-82
2022/04/14 10:18:10;;;;;;;7.35;5.45;;;15.60;99.90;;;;;;4981516;28;20406;-81
2022/04/14 10:20:38;;;;;;;9.52;6.18;;;15.50;99.90;;;;;;4980000;28;20042;-81
2022/04/14 10:23:04;;;;;;;6.43;4.90;;;15.60;99.90;;;;;;4978573;28;20042;-82
2022/04/14 10:25:30;;;;;;;9.55;6.03;;;15.60;99.90;;;;;;4977262;28;20062;-82
2022/04/14 10:28:00;;;;;;;7.60;6.25;;;15.60;99.90;;;;;;4980956;28;20517;-80
2022/04/14 10:30:27;;;;;;;9.43;6.60;;;15.70;99.90;;;;;;4980548;28;20051;-80
2022/04/14 10:32:55;;;;;;;7.05;5.32;;;15.80;99.90;;;;;;4976564;28;20130;-81
2022/04/14 10:35:23;;;;;;;7.47;4.97;;;15.80;99.90;;;;;;4960580;28;20380;-81
2022/04/14 10:37:55;;;;;;;5.55;4.28;;;15.80;99.90;;;;;;4947388;28;20039;-81
2022/04/14 10:40:21;;;;;;;9.38;4.72;;;15.80;99.90;;;;;;4964376;28;20450;-81
2022/04/14 10:42:53;;;;;;;4.28;3.53;;;15.80;99.90;;;;;;4977794;28;20482;-81
2022/04/14 10:45:23;;;;;;;6.78;2.90;;;15.90;99.90;;;;;;4977128;28;20050;-81
2022/04/14 10:47:54;;;;;;;6.40;4.18;;;16.10;99.90;;;;;;4962671;28;20047;-81
2022/04/14 10:50:34;;;;;;;4.60;3.33;;;16.20;99.90;;;;;;4980664;28;20046;-82
2022/04/14 10:53:09;;;;;;;5.05;3.67;;;16.40;99.90;;;;;;4976926;28;20039;-81
2022/04/14 10:55:43;;;;;;;6.88;3.35;;;17.50;99.90;;;;;;4960506;28;20470;-82
2022/04/14 10:58:36;;;;;;;6.43;3.20;;;16.30;99.90;;;;;;4961056;28;20046;-80
2022/04/14 11:01:02;;;;;;;5.25;2.97;;;16.50;99.90;;;;;;4980254;28;20052;-80
2022/04/14 11:03:47;;;;;;;6.68;2.70;;;16.50;99.90;;;;;;4980685;28;20053;-80
2022/04/14 11:06:48;;;;;;;6.03;2.60;;;16.40;99.90;;;;;;4976864;28;20117;-79
2022/04/14 11:09:38;;;;;;;8.05;3.60;;;17.10;99.90;;;;;;4976455;28;20125;-81
2022/04/14 11:12:11;;;;;;;4.70;2.72;;;16.40;99.90;;;;;;4977044;28;20484;-81
2022/04/14 11:14:42;;;;;;;4.53;1.73;;;16.40;99.90;;;;;;4976859;28;20046;-83
2022/04/14 11:20:38;;;;;;;4.07;1.75;;;16.20;99.90;;;;;;4964144;28;20054;-80
2022/04/14 11:23:26;;;;;;;3.65;1.67;;;16.10;99.90;;;;;;4978836;28;20073;-81
2022/04/14 11:26:00;;;;;;;4.32;2.17;;;16.20;99.90;;;;;;4978183;28;20062;-81
2022/04/14 11:28:42;;;;;;;6.63;2.60;;;16.30;99.90;;;;;;4960406;28;20053;-81
2022/04/14 11:31:20;;;;;;;9.73;2.33;;;16.30;99.90;;;;;;4955258;28;20050;-81
2022/04/14 11:33:47;;;;;;;5.13;2.40;;;16.50;99.90;;;;;;4979605;28;20050;-80
2022/04/14 11:36:14;;;;;;;2.85;1.50;;;16.40;99.90;;;;;;4976717;28;20046;-79
2022/04/14 11:39:02;;;;;;;2.92;0.73;;;16.50;99.90;;;;;;4977720;28;20039;-80
2022/04/14 11:41:27;;;;;;;3.47;1.23;;;16.60;99.90;;;;;;4976376;28;20050;-80
2022/04/14 11:43:55;;;;;;;4.22;1.88;;;17.20;99.90;;;;;;4980726;28;20399;-81
2022/04/14 11:46:24;;;;;;;3.58;2.03;;;16.70;99.90;;;;;;4985410;28;20054;-81
2022/04/14 11:48:50;;;;;;;6.97;3.38;;;16.70;99.90;;;;;;4985112;28;20387;-80
2022/04/14 11:51:17;;;;;;;4.85;3.00;;;16.80;99.90;;;;;;4979447;28;20048;-81
2022/04/14 11:53:43;;;;;;;5.53;3.03;;;16.80;99.90;;;;;;4987370;28;20042;-80
2022/04/14 11:56:18;;;;;;;6.30;3.72;;;17.00;99.90;;;;;;4986104;28;20138;-83
2022/04/14 11:58:45;;;;;;;7.47;3.88;;;17.20;99.90;;;;;;4985594;28;20133;-80
2022/04/14 12:01:12;;;;;;;4.13;3.15;;;17.30;99.90;;;;;;4961592;28;20042;-80
2022/04/14 12:03:39;;;;;;;6.25;3.45;;;17.20;99.90;;;;;;4987394;28;20367;-81
2022/04/14 12:06:06;;;;;;;5.75;3.78;;;17.00;99.90;;;;;;4984154;28;20049;-81
2022/04/14 12:08:35;;;;;;;8.65;5.05;;;16.90;99.90;;;;;;4966729;28;20517;-81
2022/04/14 12:11:11;;;;;;;6.95;3.90;;;16.90;99.90;;;;;;4968041;28;20101;-81
2022/04/14 12:13:37;;;;;;;10.23;3.83;;;16.90;99.90;;;;;;4985460;28;20042;-81
2022/04/14 12:16:07;;;;;;;4.03;2.83;;;16.90;99.90;;;;;;4985158;28;20450;-81
2022/04/14 12:18:34;;;;;;;6.50;5.45;;;17.10;99.90;;;;;;4966198;28;20339;-80
2022/04/14 12:21:00;;;;;;;6.22;3.70;;;17.10;99.90;;;;;;4983500;28;20047;-81
2022/04/14 12:23:26;;;;;;;4.97;3.22;;;17.10;99.90;;;;;;4986529;28;20384;-81
2022/04/14 12:25:56;;;;;;;6.40;3.13;;;17.20;99.90;;;;;;4985317;28;20185;-81
2022/04/14 12:28:22;;;;;;;6.55;3.33;;;17.20;99.90;;;;;;4965669;28;20145;-81
2022/04/14 12:30:47;;;;;;;4.00;2.63;;;17.10;99.90;;;;;;4983849;28;20114;-81
2022/04/14 12:33:13;;;;;;;5.07;2.63;;;17.10;99.90;;;;;;4982596;28;20074;-80
2022/04/14 12:35:43;;;;;;;4.03;2.10;;;17.00;99.90;;;;;;4986374;28;20526;-81
2022/04/14 12:38:21;;;;;;;3.40;1.95;;;17.00;99.90;;;;;;4983453;28;20058;-81
2022/04/14 12:41:02;;;;;;;7.15;2.97;;;16.90;99.90;;;;;;4981630;28;20046;-80